Time;durP1;ratioP1;P1;durP2;ratioP2;P2;SDS_P1;SDS_P2;PMS_P1;PMS_P2;Temp;Humidity;BMP_temperature;BMP_pressure;BME280_temperature;BME280_humidity;BME280_pressure;Samples;Min_cycle;Max_cycle;Signal;HPM_P1;HPM_P2
2022/08/10 00:00:38;0.00;0.00;0.62;0.00;0.00;0.62;1.80;1.47;;;29.50;25.20;;;;;;2214100;62;20368;-72
2022/08/10 00:03:23;0.00;0.00;0.62;0.00;0.00;0.62;1.87;1.50;;;29.40;25.70;;;;;;2214873;62;20428;-71
2022/08/10 00:06:08;0.00;0.00;0.62;0.00;0.00;0.62;2.10;1.60;;;29.40;25.20;;;;;;2214603;62;20400;-67
2022/08/10 00:08:54;0.00;0.00;0.62;0.00;0.00;0.62;2.00;1.60;;;29.40;25.20;;;;;;2214205;62;20393;-68
2022/08/10 00:11:38;0.00;0.00;0.62;0.00;0.00;0.62;2.57;1.97;;;29.40;25.30;;;;;;2214363;62;20733;-71
2022/08/10 00:14:23;0.00;0.00;0.62;0.00;0.00;0.62;1.90;1.40;;;29.40;25.30;;;;;;2214994;62;20373;-69
2022/08/10 00:17:08;0.00;0.00;0.62;0.00;0.00;0.62;2.80;1.70;;;29.40;25.30;;;;;;2213960;62;20365;-69
2022/08/10 00:19:52;0.00;0.00;0.62;0.00;0.00;0.62;1.70;1.43;;;29.40;25.40;;;;;;2214460;62;20388;-68
2022/08/10 00:22:37;0.00;0.00;0.62;0.00;0.00;0.62;3.80;1.90;;;29.40;25.40;;;;;;2214346;62;20593;-64
2022/08/10 00:25:23;0.00;0.00;0.62;0.00;0.00;0.62;3.20;1.77;;;29.40;25.40;;;;;;2214810;62;20479;-70
2022/08/10 00:28:08;0.00;0.00;0.62;0.00;0.00;0.62;2.30;1.60;;;29.40;25.50;;;;;;2214394;62;20396;-70
2022/08/10 00:30:53;0.00;0.00;0.62;0.00;0.00;0.62;2.20;1.90;;;29.30;25.40;;;;;;2214121;62;20483;-68
2022/08/10 00:33:37;0.00;0.00;0.62;0.00;0.00;0.62;2.50;1.80;;;29.30;25.40;;;;;;2214689;62;20387;-69
2022/08/10 00:36:23;0.00;0.00;0.62;0.00;0.00;0.62;2.20;1.40;;;29.30;25.40;;;;;;2214720;62;20399;-70
2022/08/10 00:39:07;0.00;0.00;0.62;0.00;0.00;0.62;1.77;1.30;;;29.40;25.50;;;;;;2213827;62;20814;-67
2022/08/10 00:41:54;0.00;0.00;0.62;0.00;0.00;0.62;2.47;1.63;;;29.30;25.50;;;;;;2214398;62;20387;-69
2022/08/10 00:44:43;0.00;0.00;0.62;0.00;0.00;0.62;2.43;1.70;;;29.30;25.50;;;;;;2214789;62;20692;-69
2022/08/10 00:47:28;0.00;0.00;0.62;0.00;0.00;0.62;3.07;1.83;;;29.30;25.40;;;;;;2214557;62;20434;-65
2022/08/10 00:50:12;0.00;0.00;0.62;0.00;0.00;0.62;2.07;1.57;;;29.30;25.50;;;;;;2214506;62;20407;-71
2022/08/10 00:52:57;0.00;0.00;0.62;0.00;0.00;0.62;2.00;1.53;;;29.40;25.50;;;;;;2213897;62;20448;-70
2022/08/10 00:55:42;0.00;0.00;0.62;0.00;0.00;0.62;2.20;1.50;;;29.30;25.50;;;;;;2214709;62;20368;-68
2022/08/10 00:58:28;0.00;0.00;0.62;0.00;0.00;0.62;2.47;1.67;;;29.40;25.60;;;;;;2214786;62;20405;-70
2022/08/10 01:01:13;0.00;0.00;0.62;0.00;0.00;0.62;2.77;1.70;;;29.30;25.50;;;;;;2213726;62;20748;-69
2022/08/10 01:04:01;0.00;0.00;0.62;0.00;0.00;0.62;2.37;1.80;;;29.30;25.50;;;;;;2214396;62;20413;-69
2022/08/10 01:07:07;0.00;0.00;0.62;0.00;0.00;0.62;2.37;1.40;;;29.30;25.50;;;;;;2214691;62;20369;-68
2022/08/10 01:10:09;0.00;0.00;0.62;0.00;0.00;0.62;2.17;1.40;;;29.30;25.50;;;;;;2214672;62;20803;-69
2022/08/10 01:13:05;0.00;0.00;0.62;0.00;0.00;0.62;2.00;1.80;;;29.30;25.60;;;;;;2214582;62;20474;-68
2022/08/10 01:16:03;0.00;0.00;0.62;0.00;0.00;0.62;2.20;1.50;;;29.30;25.50;;;;;;2213886;62;20729;-67
2022/08/10 01:18:55;0.00;0.00;0.62;0.00;0.00;0.62;2.10;1.20;;;29.30;25.60;;;;;;2214602;62;20423;-67
2022/08/10 01:22:17;0.00;0.00;0.62;0.00;0.00;0.62;1.93;1.67;;;29.30;25.60;;;;;;2214608;62;20412;-68
2022/08/10 01:25:25;0.00;0.00;0.62;0.00;0.00;0.62;2.33;1.60;;;29.30;25.60;;;;;;2214800;62;20407;-68
2022/08/10 01:28:28;0.00;0.00;0.62;0.00;0.00;0.62;2.23;1.63;;;29.30;25.70;;;;;;2213746;62;20531;-67
2022/08/10 01:31:29;0.00;0.00;0.62;0.00;0.00;0.62;1.90;1.70;;;29.30;25.70;;;;;;2214328;62;20658;-67
2022/08/10 01:34:22;0.00;0.00;0.62;0.00;0.00;0.62;2.07;1.80;;;29.30;25.70;;;;;;2214043;62;20495;-68
2022/08/10 01:37:15;0.00;0.00;0.62;0.00;0.00;0.62;1.90;1.47;;;29.30;25.70;;;;;;2213941;62;20386;-67
2022/08/10 01:40:06;0.00;0.00;0.62;0.00;0.00;0.62;3.43;2.17;;;29.30;25.70;;;;;;2214684;62;20361;-68
2022/08/10 01:42:55;0.00;0.00;0.62;0.00;0.00;0.62;2.10;1.63;;;29.30;25.80;;;;;;2214632;62;20349;-66
2022/08/10 01:45:45;0.00;0.00;0.62;0.00;0.00;0.62;2.27;1.53;;;29.30;25.80;;;;;;2214160;62;20392;-68
2022/08/10 01:48:36;0.00;0.00;0.62;0.00;0.00;0.62;2.37;1.70;;;29.30;25.80;;;;;;2214368;62;20810;-68
2022/08/10 01:51:28;0.00;0.00;0.62;0.00;0.00;0.62;1.90;1.53;;;29.30;25.80;;;;;;2214339;62;20450;-69
2022/08/10 01:54:18;0.00;0.00;0.62;0.00;0.00;0.62;2.60;1.60;;;29.30;25.80;;;;;;2214698;62;20718;-68
2022/08/10 01:57:06;0.00;0.00;0.62;0.00;0.00;0.62;2.27;1.43;;;29.30;25.80;;;;;;2214304;62;20398;-68
2022/08/10 01:59:55;0.00;0.00;0.62;0.00;0.00;0.62;2.30;1.50;;;29.30;25.80;;;;;;2214248;62;20755;-68
2022/08/10 02:02:43;0.00;0.00;0.62;0.00;0.00;0.62;2.33;1.57;;;29.30;25.80;;;;;;2214479;62;20390;-68
2022/08/10 02:05:31;0.00;0.00;0.62;0.00;0.00;0.62;2.10;1.70;;;29.30;25.80;;;;;;2214649;62;20369;-68
2022/08/10 02:08:18;0.00;0.00;0.62;0.00;0.00;0.62;2.03;1.57;;;29.30;25.80;;;;;;2214151;62;20389;-68
2022/08/10 02:11:04;0.00;0.00;0.62;0.00;0.00;0.62;2.73;1.70;;;29.20;25.80;;;;;;2214293;62;20368;-68
2022/08/10 02:13:51;0.00;0.00;0.62;0.00;0.00;0.62;2.50;1.97;;;29.20;25.80;;;;;;2214351;62;20729;-67
2022/08/10 02:16:39;0.00;0.00;0.62;0.00;0.00;0.62;2.33;1.70;;;29.20;25.80;;;;;;2214531;62;20721;-68
2022/08/10 02:19:27;0.00;0.00;0.62;0.00;0.00;0.62;1.80;1.60;;;29.20;25.80;;;;;;2214491;62;20381;-68
2022/08/10 02:22:15;0.00;0.00;0.62;0.00;0.00;0.62;2.47;1.57;;;29.20;25.80;;;;;;2214165;62;20492;-68
2022/08/10 02:25:03;0.00;0.00;0.62;0.00;0.00;0.62;2.60;1.77;;;29.20;25.90;;;;;;2213911;62;20381;-66
2022/08/10 02:27:50;0.00;0.00;0.62;0.00;0.00;0.62;3.27;1.80;;;29.20;25.90;;;;;;2214669;62;20384;-67
2022/08/10 02:30:36;0.00;0.00;0.62;0.00;0.00;0.62;2.00;1.37;;;29.20;25.90;;;;;;2214198;62;20410;-67
2022/08/10 02:33:24;0.00;0.00;0.62;0.00;0.00;0.62;2.57;1.60;;;29.20;25.90;;;;;;2214361;62;20401;-68
2022/08/10 02:36:11;0.00;0.00;0.62;0.00;0.00;0.62;2.07;1.63;;;29.20;25.90;;;;;;2214058;62;20372;-67
2022/08/10 02:39:02;0.00;0.00;0.62;0.00;0.00;0.62;2.00;1.47;;;29.20;26.00;;;;;;2214526;62;20380;-67
2022/08/10 02:41:56;0.00;0.00;0.62;0.00;0.00;0.62;3.27;1.70;;;29.20;26.00;;;;;;2214426;62;20357;-67
2022/08/10 02:44:49;0.00;0.00;0.62;0.00;0.00;0.62;3.30;1.60;;;29.20;26.00;;;;;;2213692;62;20408;-67
2022/08/10 02:47:41;0.00;0.00;0.62;0.00;0.00;0.62;2.00;1.60;;;29.20;26.00;;;;;;2214221;62;20616;-67
2022/08/10 02:50:30;0.00;0.00;0.62;0.00;0.00;0.62;2.53;1.80;;;29.20;26.00;;;;;;2214487;62;20360;-67
2022/08/10 02:53:23;0.00;0.00;0.62;0.00;0.00;0.62;2.30;1.97;;;29.20;26.50;;;;;;2214504;62;20397;-68
2022/08/10 02:56:17;0.00;0.00;0.62;0.00;0.00;0.62;2.40;1.80;;;29.10;26.00;;;;;;2214267;62;20369;-67
2022/08/10 02:59:11;0.00;0.00;0.62;0.00;0.00;0.62;2.57;1.90;;;29.10;26.00;;;;;;2214029;62;20385;-68
2022/08/10 03:02:02;0.00;0.00;0.62;0.00;0.00;0.62;2.00;1.60;;;29.10;26.00;;;;;;2214234;62;20377;-68
2022/08/10 03:04:52;0.00;0.00;0.62;0.00;0.00;0.62;2.00;1.60;;;29.10;26.00;;;;;;2214178;62;20369;-66
2022/08/10 03:07:44;0.00;0.00;0.62;0.00;0.00;0.62;2.67;1.70;;;29.10;26.00;;;;;;2213946;62;20446;-67
2022/08/10 03:10:32;0.00;0.00;0.62;0.00;0.00;0.62;1.97;1.60;;;29.10;26.10;;;;;;2214245;62;20583;-67
2022/08/10 03:13:22;0.00;0.00;0.62;0.00;0.00;0.62;2.10;1.53;;;29.10;26.00;;;;;;2213990;62;20400;-68
2022/08/10 03:16:09;0.00;0.00;0.62;0.00;0.00;0.62;2.43;1.63;;;29.10;26.10;;;;;;2214481;62;20490;-67
2022/08/10 03:18:57;0.00;0.00;0.62;0.00;0.00;0.62;2.30;1.80;;;29.10;26.70;;;;;;2214428;62;20380;-67
2022/08/10 03:21:45;0.00;0.00;0.62;0.00;0.00;0.62;2.20;1.80;;;29.10;26.20;;;;;;2213581;62;20399;-67
2022/08/10 03:24:30;0.00;0.00;0.62;0.00;0.00;0.62;2.30;1.90;;;29.10;26.70;;;;;;2214506;62;20368;-67
2022/08/10 03:27:16;0.00;0.00;0.62;0.00;0.00;0.62;3.80;1.63;;;29.10;26.20;;;;;;2215000;62;20360;-67
2022/08/10 03:30:03;0.00;0.00;0.62;0.00;0.00;0.62;1.97;1.77;;;29.10;26.20;;;;;;2215174;62;20384;-66
2022/08/10 03:32:50;0.00;0.00;0.62;0.00;0.00;0.62;1.90;1.40;;;29.00;26.20;;;;;;2214895;62;20411;-67
2022/08/10 03:35:35;0.00;0.00;0.62;0.00;0.00;0.62;2.50;1.90;;;29.00;26.20;;;;;;2214595;62;20400;-68
2022/08/10 03:38:20;0.00;0.00;0.62;0.00;0.00;0.62;3.00;1.70;;;29.00;26.20;;;;;;2215020;62;20431;-67
2022/08/10 03:41:08;0.00;0.00;0.62;0.00;0.00;0.62;2.60;1.43;;;29.00;26.20;;;;;;2214798;62;20369;-67
2022/08/10 03:43:54;0.00;0.00;0.62;0.00;0.00;0.62;3.77;1.80;;;29.00;26.20;;;;;;2214681;62;20370;-68
2022/08/10 03:46:42;0.00;0.00;0.62;0.00;0.00;0.62;2.00;1.67;;;29.00;26.20;;;;;;2214833;62;20526;-67
2022/08/10 03:49:29;0.00;0.00;0.62;0.00;0.00;0.62;2.47;1.97;;;29.00;26.30;;;;;;2215044;62;20392;-68
2022/08/10 03:52:15;0.00;0.00;0.62;0.00;0.00;0.62;3.37;2.23;;;29.00;26.30;;;;;;2214885;62;20724;-66
2022/08/10 03:55:01;0.00;0.00;0.62;0.00;0.00;0.62;2.20;1.70;;;29.00;26.30;;;;;;2214763;62;20597;-67
2022/08/10 03:57:47;0.00;0.00;0.62;0.00;0.00;0.62;4.23;2.10;;;29.00;26.30;;;;;;2214497;62;20385;-68
2022/08/10 04:00:33;0.00;0.00;0.62;0.00;0.00;0.62;3.00;2.30;;;28.90;26.40;;;;;;2215018;62;20372;-67
2022/08/10 04:03:20;0.00;0.00;0.62;0.00;0.00;0.62;3.60;1.90;;;28.90;26.40;;;;;;2214696;62;20376;-67
2022/08/10 04:06:06;0.00;0.00;0.62;0.00;0.00;0.62;3.13;1.80;;;28.90;26.40;;;;;;2214470;62;20464;-67
2022/08/10 04:08:52;0.00;0.00;0.62;0.00;0.00;0.62;3.00;1.90;;;28.90;26.40;;;;;;2214597;62;20424;-67
2022/08/10 04:11:38;0.00;0.00;0.62;0.00;0.00;0.62;2.80;1.87;;;28.90;26.40;;;;;;2214999;62;20372;-66
2022/08/10 04:14:24;0.00;0.00;0.62;0.00;0.00;0.62;2.70;1.90;;;28.90;26.40;;;;;;2214823;62;20387;-66
2022/08/10 04:17:09;0.00;0.00;0.62;0.00;0.00;0.62;2.43;2.20;;;28.90;26.40;;;;;;2214460;62;20357;-67
2022/08/10 04:19:58;0.00;0.00;0.62;0.00;0.00;0.62;2.07;1.80;;;28.90;26.40;;;;;;2214071;62;20368;-68
2022/08/10 04:22:44;0.00;0.00;0.62;0.00;0.00;0.62;2.00;1.73;;;28.90;26.50;;;;;;2214999;62;20372;-68
2022/08/10 04:25:30;0.00;0.00;0.62;0.00;0.00;0.62;2.30;2.03;;;28.90;26.50;;;;;;2214813;62;20353;-67
2022/08/10 04:28:15;0.00;0.00;0.62;0.00;0.00;0.62;3.57;2.30;;;28.90;26.60;;;;;;2214046;62;20388;-68
2022/08/10 04:31:01;0.00;0.00;0.62;0.00;0.00;0.62;2.80;2.00;;;28.90;26.60;;;;;;2214608;62;20436;-67
2022/08/10 04:33:51;0.00;0.00;0.62;0.00;0.00;0.62;2.37;2.10;;;28.90;26.60;;;;;;2215079;62;20369;-67
2022/08/10 04:36:38;0.00;0.00;0.62;0.00;0.00;0.62;2.07;1.87;;;28.80;26.50;;;;;;2214713;62;20364;-67
2022/08/10 04:39:23;0.00;0.00;0.62;0.00;0.00;0.62;2.43;1.57;;;28.90;26.60;;;;;;2214727;62;20748;-67
2022/08/10 04:42:08;0.00;0.00;0.62;0.00;0.00;0.62;3.40;2.07;;;28.80;26.50;;;;;;2214706;62;20577;-68
2022/08/10 04:44:53;0.00;0.00;0.62;0.00;0.00;0.62;2.90;2.40;;;28.80;26.50;;;;;;2215025;62;20394;-68
2022/08/10 04:47:38;0.00;0.00;0.62;0.00;0.00;0.62;2.27;1.80;;;28.80;26.60;;;;;;2214747;62;20407;-67
2022/08/10 04:50:23;0.00;0.00;0.62;0.00;0.00;0.62;3.17;2.00;;;28.80;26.50;;;;;;2214712;62;20402;-68
2022/08/10 04:53:10;0.00;0.00;0.62;0.00;0.00;0.62;3.30;2.17;;;28.80;26.50;;;;;;2215062;62;20372;-67
2022/08/10 04:55:55;0.00;0.00;0.62;0.00;0.00;0.62;2.13;1.93;;;28.80;26.50;;;;;;2215583;62;20401;-67
2022/08/10 04:58:40;0.00;0.00;0.62;0.00;0.00;0.62;2.17;1.67;;;28.80;26.60;;;;;;2215578;62;20412;-67
2022/08/10 05:01:24;0.00;0.00;0.62;0.00;0.00;0.62;1.90;1.70;;;28.80;26.60;;;;;;2215909;62;20380;-67
2022/08/10 05:04:09;0.00;0.00;0.62;0.00;0.00;0.62;2.50;1.73;;;28.80;26.50;;;;;;2216469;62;20461;-67
2022/08/10 05:06:53;0.00;0.00;0.62;0.00;0.00;0.62;2.43;1.83;;;28.80;26.60;;;;;;2217134;62;20377;-67
2022/08/10 05:09:41;0.00;0.00;0.62;0.00;0.00;0.62;2.97;1.90;;;28.80;26.60;;;;;;2215427;62;20396;-66
2022/08/10 05:12:26;0.00;0.00;0.62;0.00;0.00;0.62;1.97;1.73;;;28.80;26.60;;;;;;2214484;62;20384;-68
2022/08/10 05:15:13;0.00;0.00;0.62;0.00;0.00;0.62;3.20;2.13;;;28.80;26.50;;;;;;2214421;62;20399;-67
2022/08/10 05:17:58;0.00;0.00;0.62;0.00;0.00;0.62;2.60;2.20;;;28.80;26.60;;;;;;2214769;62;20465;-65
2022/08/10 05:20:43;0.00;0.00;0.62;0.00;0.00;0.62;3.53;1.90;;;28.80;26.70;;;;;;2214049;62;20403;-65
2022/08/10 05:23:27;0.00;0.00;0.62;0.00;0.00;0.62;3.60;2.40;;;28.80;26.70;;;;;;2213917;62;20457;-70
2022/08/10 05:26:14;0.00;0.00;0.62;0.00;0.00;0.62;3.00;2.03;;;28.80;26.80;;;;;;2214060;62;20604;-66
2022/08/10 05:28:59;0.00;0.00;0.62;0.00;0.00;0.62;3.93;2.40;;;28.80;26.80;;;;;;2214594;62;20400;-65
2022/08/10 05:31:43;0.00;0.00;0.62;0.00;0.00;0.62;4.13;1.87;;;28.80;26.80;;;;;;2214476;62;20370;-66
2022/08/10 05:34:29;0.00;0.00;0.62;0.00;0.00;0.62;8.10;2.00;;;28.80;26.80;;;;;;2214081;62;20380;-68
2022/08/10 05:37:14;0.00;0.00;0.62;0.00;0.00;0.62;2.40;2.10;;;28.70;26.70;;;;;;2214140;62;20728;-69
2022/08/10 05:40:01;0.00;0.00;0.62;0.00;0.00;0.62;3.70;2.10;;;28.70;26.80;;;;;;2214698;62;20377;-66
2022/08/10 05:42:48;0.00;0.00;0.62;0.00;0.00;0.62;3.77;2.40;;;28.70;26.80;;;;;;2213963;62;20384;-65
2022/08/10 05:45:33;0.00;0.00;0.62;0.00;0.00;0.62;3.40;2.60;;;28.70;26.80;;;;;;2212993;62;20384;-71
2022/08/10 05:48:18;0.00;0.00;0.62;0.00;0.00;0.62;2.53;2.10;;;28.70;26.80;;;;;;2212182;62;20421;-70
2022/08/10 05:51:03;0.00;0.00;0.62;0.00;0.00;0.62;3.40;2.20;;;28.70;26.90;;;;;;2214589;62;20636;-71
2022/08/10 05:53:49;0.00;0.00;0.62;0.00;0.00;0.62;2.47;2.10;;;28.70;26.80;;;;;;2214416;62;20365;-73
2022/08/10 05:56:36;0.00;0.00;0.62;0.00;0.00;0.62;2.77;2.50;;;28.70;26.80;;;;;;2213268;62;20377;-73
2022/08/10 05:59:26;0.00;0.00;0.62;0.00;0.00;0.62;4.50;2.77;;;28.70;26.90;;;;;;2214444;62;20428;-72
2022/08/10 06:02:14;0.00;0.00;0.62;0.00;0.00;0.62;3.47;2.50;;;28.70;26.90;;;;;;2214645;62;20425;-71
2022/08/10 06:05:00;0.00;0.00;0.62;0.00;0.00;0.62;2.40;2.10;;;28.60;26.90;;;;;;2214003;62;20376;-73
2022/08/10 06:07:51;0.00;0.00;0.62;0.00;0.00;0.62;3.07;2.30;;;28.60;26.90;;;;;;2445871;47;20445;-69
2022/08/10 06:10:37;0.00;0.00;0.62;0.00;0.00;0.62;2.90;2.57;;;28.60;26.90;;;;;;2218280;62;20414;-69
2022/08/10 06:16:30;0.00;0.00;0.62;0.00;0.00;0.62;2.67;2.20;;;28.60;26.90;;;;;;2218064;62;20456;-74
2022/08/10 06:19:15;0.00;0.00;0.62;0.00;0.00;0.62;3.20;2.20;;;28.60;26.90;;;;;;2218223;62;20392;-71
2022/08/10 06:22:01;0.00;0.00;0.62;0.00;0.00;0.62;3.70;2.70;;;28.60;26.90;;;;;;2217711;62;20364;-71
2022/08/10 06:24:46;0.00;0.00;0.62;0.00;0.00;0.62;2.83;2.50;;;28.60;26.90;;;;;;2218468;62;20390;-70
2022/08/10 06:27:32;0.00;0.00;0.62;0.00;0.00;0.62;2.93;2.20;;;28.60;26.90;;;;;;2218309;62;20415;-67
2022/08/10 06:30:17;0.00;0.00;0.62;0.00;0.00;0.62;3.33;2.60;;;28.60;26.90;;;;;;2217381;62;20651;-67
2022/08/10 06:33:05;0.00;0.00;0.62;0.00;0.00;0.62;3.03;2.77;;;28.60;27.00;;;;;;2216358;62;20394;-73
2022/08/10 06:35:55;0.00;0.00;0.62;0.00;0.00;0.62;3.00;2.40;;;28.60;27.00;;;;;;2217753;62;20367;-70
2022/08/10 06:38:42;0.00;0.00;0.62;0.00;0.00;0.62;6.10;2.70;;;28.60;27.00;;;;;;2217917;62;20403;-69
2022/08/10 06:41:33;0.00;0.00;0.62;0.00;0.00;0.62;3.33;2.33;;;28.60;27.00;;;;;;2218106;62;20380;-70
2022/08/10 06:44:24;0.00;0.00;0.62;0.00;0.00;0.62;5.33;3.00;;;28.60;27.00;;;;;;2217821;62;20386;-71
2022/08/10 06:47:12;0.00;0.00;0.62;0.00;0.00;0.62;2.53;2.33;;;28.60;27.00;;;;;;2218409;62;20580;-70
2022/08/10 06:50:05;0.00;0.00;0.62;0.00;0.00;0.62;3.30;2.80;;;28.60;27.00;;;;;;2218368;62;20437;-68
2022/08/10 06:52:52;0.00;0.00;0.62;0.00;0.00;0.62;3.60;2.23;;;28.60;27.00;;;;;;2220292;62;20372;-73
2022/08/10 06:55:38;0.00;0.00;0.62;0.00;0.00;0.62;4.63;2.50;;;28.60;27.00;;;;;;2220259;62;20413;-73
2022/08/10 06:58:27;0.00;0.00;0.62;0.00;0.00;0.62;2.30;2.10;;;28.60;27.00;;;;;;2218016;62;20673;-68
2022/08/10 07:01:17;0.00;0.00;0.62;0.00;0.00;0.62;2.67;2.40;;;28.50;26.90;;;;;;2219071;62;20371;-67
2022/08/10 07:04:07;0.00;0.00;0.62;0.00;0.00;0.62;4.33;2.73;;;28.60;27.00;;;;;;2218789;62;20368;-67
2022/08/10 07:06:55;0.00;0.00;0.62;0.00;0.00;0.62;4.40;2.90;;;28.60;27.00;;;;;;2218134;62;20483;-71
2022/08/10 07:09:40;0.00;0.00;0.62;0.00;0.00;0.62;3.33;2.83;;;28.60;27.00;;;;;;2218681;62;20501;-73
2022/08/10 07:12:27;0.00;0.00;0.62;0.00;0.00;0.62;2.90;2.33;;;28.60;27.00;;;;;;2218572;62;20368;-68
2022/08/10 07:15:13;0.00;0.00;0.62;0.00;0.00;0.62;2.90;2.37;;;28.60;27.00;;;;;;2218368;62;20413;-72
2022/08/10 07:17:59;0.00;0.00;0.62;0.00;0.00;0.62;4.20;3.17;;;28.60;27.00;;;;;;2218067;62;20384;-69
2022/08/10 07:20:45;0.00;0.00;0.62;0.00;0.00;0.62;3.73;3.00;;;28.60;27.10;;;;;;2218181;62;20445;-70
2022/08/10 07:23:34;0.00;0.00;0.62;0.00;0.00;0.62;4.53;2.80;;;28.60;27.10;;;;;;2218472;62;20384;-68
2022/08/10 07:26:20;0.00;0.00;0.62;0.00;0.00;0.62;3.40;2.80;;;28.60;27.10;;;;;;2440044;54;20389;-64
2022/08/10 07:29:06;0.00;0.00;0.62;0.00;0.00;0.62;7.13;3.83;;;28.60;27.10;;;;;;2214282;62;20442;-70
2022/08/10 07:31:51;0.00;0.00;0.62;0.00;0.00;0.62;5.53;3.27;;;28.60;27.10;;;;;;2214299;62;20597;-71
2022/08/10 07:34:38;0.00;0.00;0.62;0.00;0.00;0.62;6.00;3.10;;;28.60;27.10;;;;;;2214007;62;20368;-67
2022/08/10 07:37:25;0.00;0.00;0.62;0.00;0.00;0.62;4.63;2.80;;;28.60;27.10;;;;;;2214597;62;20760;-67
2022/08/10 07:40:14;0.00;0.00;0.62;0.00;0.00;0.62;2.57;2.20;;;28.60;27.20;;;;;;2213921;62;20365;-68
2022/08/10 07:43:01;0.00;0.00;0.62;0.00;0.00;0.62;6.03;2.80;;;28.60;27.00;;;;;;2214188;62;20443;-64
2022/08/10 07:45:48;0.00;0.00;0.62;0.00;0.00;0.62;4.60;3.13;;;28.60;27.00;;;;;;2214731;62;20403;-66
2022/08/10 07:48:41;0.00;0.00;0.62;0.00;0.00;0.62;5.53;3.63;;;28.60;27.10;;;;;;2214292;62;20446;-68
2022/08/10 07:51:27;0.00;0.00;0.62;0.00;0.00;0.62;4.00;3.23;;;28.60;27.00;;;;;;2214229;62;20384;-66
2022/08/10 07:54:14;0.00;0.00;0.62;0.00;0.00;0.62;3.90;3.43;;;28.60;27.00;;;;;;2213950;62;20434;-68
2022/08/10 07:57:05;0.00;0.00;0.62;0.00;0.00;0.62;5.50;3.20;;;28.60;27.10;;;;;;2213981;62;20365;-67
2022/08/10 07:59:56;0.00;0.00;0.62;0.00;0.00;0.62;7.10;3.37;;;28.60;27.10;;;;;;2214567;62;20641;-69
2022/08/10 08:02:47;0.00;0.00;0.62;0.00;0.00;0.62;5.47;3.17;;;28.60;27.10;;;;;;2213805;62;20365;-69
2022/08/10 08:05:33;0.00;0.00;0.62;0.00;0.00;0.62;4.57;3.03;;;28.60;27.10;;;;;;2214055;62;20412;-68
2022/08/10 08:08:20;0.00;0.00;0.62;0.00;0.00;0.62;3.60;2.50;;;28.60;27.10;;;;;;2214362;62;20388;-69
2022/08/10 08:11:06;0.00;0.00;0.62;0.00;0.00;0.62;6.53;2.87;;;28.60;27.20;;;;;;2214288;62;20376;-69
2022/08/10 08:13:55;0.00;0.00;0.62;0.00;0.00;0.62;2.93;2.60;;;28.60;27.20;;;;;;2214163;62;20449;-69
2022/08/10 08:16:44;0.00;0.00;0.62;0.00;0.00;0.62;7.13;3.10;;;28.60;27.20;;;;;;2213966;62;20763;-67
2022/08/10 08:19:30;0.00;0.00;0.62;0.00;0.00;0.62;5.60;2.90;;;28.60;27.20;;;;;;2214200;62;20361;-70
2022/08/10 08:22:17;0.00;0.00;0.62;0.00;0.00;0.62;3.03;2.47;;;28.60;27.20;;;;;;2214532;62;20377;-70
2022/08/10 08:25:05;0.00;0.00;0.62;0.00;0.00;0.62;3.60;2.30;;;28.60;27.20;;;;;;2214226;62;20376;-68
2022/08/10 08:27:52;0.00;0.00;0.62;0.00;0.00;0.62;6.60;2.47;;;28.60;27.20;;;;;;2214068;62;20666;-68
2022/08/10 08:30:40;0.00;0.00;0.62;0.00;0.00;0.62;3.10;2.50;;;28.60;27.20;;;;;;2214416;62;20433;-69
2022/08/10 08:33:26;0.00;0.00;0.62;0.00;0.00;0.62;3.40;2.73;;;28.60;27.20;;;;;;2214448;62;20976;-67
2022/08/10 08:36:14;0.00;0.00;0.62;0.00;0.00;0.62;4.53;2.77;;;28.60;27.20;;;;;;2213910;62;20388;-66
2022/08/10 08:38:59;0.00;0.00;0.62;0.00;0.00;0.62;4.57;2.97;;;28.60;27.20;;;;;;2214257;62;20650;-68
2022/08/10 08:42:11;0.00;0.00;0.62;0.00;0.00;0.62;2.87;2.57;;;28.70;27.20;;;;;;2214034;62;20353;-69
2022/08/10 08:45:17;0.00;0.00;0.62;0.00;0.00;0.62;4.17;3.20;;;28.70;27.30;;;;;;2213963;62;20369;-66
2022/08/10 08:48:34;0.00;0.00;0.62;0.00;0.00;0.62;5.80;3.67;;;28.70;27.30;;;;;;2214134;62;20388;-71
2022/08/10 08:51:36;0.00;0.00;0.62;0.00;0.00;0.62;4.03;2.53;;;28.70;27.30;;;;;;2214587;62;20449;-67
2022/08/10 08:54:37;0.00;0.00;0.62;0.00;0.00;0.62;2.90;2.60;;;28.70;27.30;;;;;;2214251;62;20611;-64
2022/08/10 08:57:31;0.00;0.00;0.62;0.00;0.00;0.62;3.23;2.77;;;28.70;27.30;;;;;;2214130;62;20446;-66
2022/08/10 09:00:27;0.00;0.00;0.62;0.00;0.00;0.62;2.53;2.03;;;28.70;27.30;;;;;;2214397;62;20442;-65
2022/08/10 09:03:51;0.00;0.00;0.62;0.00;0.00;0.62;4.43;2.93;;;28.70;27.20;;;;;;2214660;62;20770;-65
2022/08/10 09:07:07;0.00;0.00;0.62;0.00;0.00;0.62;4.20;3.23;;;28.70;27.20;;;;;;2214169;62;20385;-65
2022/08/10 09:10:13;0.00;0.00;0.62;0.00;0.00;0.62;4.13;2.50;;;28.70;27.30;;;;;;2214265;62;20405;-65
2022/08/10 09:13:08;0.00;0.00;0.62;0.00;0.00;0.62;4.40;3.00;;;28.70;27.40;;;;;;2214055;62;20369;-63
2022/08/10 09:16:15;0.00;0.00;0.62;0.00;0.00;0.62;3.50;2.87;;;28.70;27.40;;;;;;2214288;62;20365;-64
2022/08/10 09:19:09;0.00;0.00;0.62;0.00;0.00;0.62;5.57;2.83;;;28.70;27.40;;;;;;2213889;62;20381;-64
2022/08/10 09:22:04;0.00;0.00;0.62;0.00;0.00;0.62;3.67;2.60;;;28.70;27.40;;;;;;2213912;62;20377;-66
2022/08/10 09:24:56;0.00;0.00;0.62;0.00;0.00;0.62;3.83;2.97;;;28.70;27.40;;;;;;2214352;62;20353;-63
2022/08/10 09:27:44;0.00;0.00;0.62;0.00;0.00;0.62;4.37;3.03;;;28.70;27.50;;;;;;2213991;62;20439;-66
2022/08/10 09:30:43;0.00;0.00;0.62;0.00;0.00;0.62;3.77;2.83;;;28.80;27.50;;;;;;2214261;62;20426;-62
2022/08/10 09:33:54;0.00;0.00;0.62;0.00;0.00;0.62;4.00;2.80;;;28.80;27.50;;;;;;2213560;62;20765;-65
2022/08/10 09:36:53;0.00;0.00;0.62;0.00;0.00;0.62;3.67;3.33;;;28.80;27.50;;;;;;2214461;62;20357;-65
2022/08/10 09:39:47;0.00;0.00;0.62;0.00;0.00;0.62;5.13;2.50;;;28.80;27.40;;;;;;2213913;62;20390;-67
2022/08/10 09:42:41;0.00;0.00;0.62;0.00;0.00;0.62;2.83;2.63;;;28.80;27.40;;;;;;2213956;62;20410;-68
2022/08/10 09:45:42;0.00;0.00;0.62;0.00;0.00;0.62;8.30;2.83;;;28.80;27.40;;;;;;2214077;62;20411;-68
2022/08/10 09:48:40;0.00;0.00;0.62;0.00;0.00;0.62;5.83;3.07;;;28.80;27.30;;;;;;2213691;62;20481;-68
2022/08/10 09:51:37;0.00;0.00;0.62;0.00;0.00;0.62;3.67;2.87;;;28.80;27.30;;;;;;2214356;62;20434;-65
2022/08/10 09:54:47;0.00;0.00;0.62;0.00;0.00;0.62;5.10;3.03;;;28.90;27.40;;;;;;2213721;62;20426;-65
2022/08/10 09:57:41;0.00;0.00;0.62;0.00;0.00;0.62;3.17;2.77;;;28.90;27.30;;;;;;2216748;62;20399;-70
2022/08/10 10:00:34;0.00;0.00;0.62;0.00;0.00;0.62;5.33;2.87;;;28.90;27.30;;;;;;2221223;62;20726;-66
2022/08/10 10:03:28;0.00;0.00;0.62;0.00;0.00;0.62;3.30;2.70;;;28.90;27.20;;;;;;2221646;62;20423;-66
2022/08/10 10:06:20;0.00;0.00;0.62;0.00;0.00;0.62;4.40;2.73;;;28.90;27.00;;;;;;2221602;62;20374;-66
2022/08/10 10:09:12;0.00;0.00;0.62;0.00;0.00;0.62;2.83;2.30;;;28.90;27.00;;;;;;2221167;62;20382;-66
2022/08/10 10:12:14;0.00;0.00;0.62;0.00;0.00;0.62;6.73;2.90;;;28.90;26.90;;;;;;2221751;62;20776;-66
2022/08/10 10:15:22;0.00;0.00;0.62;0.00;0.00;0.62;8.53;2.87;;;28.90;26.80;;;;;;2221790;62;20367;-66
2022/08/10 10:18:29;0.00;0.00;0.62;0.00;0.00;0.62;3.00;2.27;;;28.90;26.60;;;;;;2221560;62;20630;-67
2022/08/10 10:21:24;0.00;0.00;0.62;0.00;0.00;0.62;2.30;2.10;;;28.90;26.60;;;;;;2222169;62;20469;-66
2022/08/10 10:24:20;0.00;0.00;0.62;0.00;0.00;0.62;2.90;2.10;;;29.00;26.50;;;;;;2221820;62;20582;-66
2022/08/10 10:27:20;0.00;0.00;0.62;0.00;0.00;0.62;3.03;2.43;;;29.00;27.00;;;;;;2220377;62;20481;-69
2022/08/10 10:30:09;0.00;0.00;0.62;0.00;0.00;0.62;3.23;2.20;;;29.00;26.40;;;;;;2220838;62;20379;-66
2022/08/10 10:33:01;0.00;0.00;0.62;0.00;0.00;0.62;5.30;2.50;;;29.00;26.30;;;;;;2221512;62;20375;-68
2022/08/10 10:35:51;0.00;0.00;0.62;0.00;0.00;0.62;3.70;2.60;;;29.00;26.30;;;;;;2222601;62;20412;-66
2022/08/10 10:38:38;0.00;0.00;0.62;0.00;0.00;0.62;3.20;2.20;;;29.00;26.30;;;;;;2222502;62;20428;-65
2022/08/10 10:41:35;0.00;0.00;0.62;0.00;0.00;0.62;2.77;2.30;;;29.00;26.30;;;;;;2222350;62;20351;-71
2022/08/10 10:44:37;0.00;0.00;0.62;0.00;0.00;0.62;6.73;1.87;;;29.00;26.30;;;;;;2222223;62;20453;-68
2022/08/10 10:47:47;0.00;0.00;0.62;0.00;0.00;0.62;3.30;2.27;;;29.00;26.20;;;;;;2222173;62;20533;-65
2022/08/10 10:50:49;0.00;0.00;0.62;0.00;0.00;0.62;2.27;2.07;;;29.00;26.10;;;;;;2222536;62;20652;-68
2022/08/10 10:53:44;0.00;0.00;0.62;0.00;0.00;0.62;4.80;2.20;;;29.00;26.00;;;;;;2222167;62;20408;-61
2022/08/10 10:56:38;0.00;0.00;0.62;0.00;0.00;0.62;2.53;2.30;;;29.00;25.90;;;;;;2219991;62;20695;-63
2022/08/10 10:59:36;0.00;0.00;0.62;0.00;0.00;0.62;2.63;2.10;;;29.00;25.90;;;;;;2218363;62;20399;-63
2022/08/10 11:02:42;0.00;0.00;0.62;0.00;0.00;0.62;3.23;2.77;;;29.10;25.90;;;;;;2218421;62;20585;-64
2022/08/10 11:05:37;0.00;0.00;0.62;0.00;0.00;0.62;4.03;2.50;;;29.10;25.80;;;;;;2218724;62;20395;-64
2022/08/10 11:08:24;0.00;0.00;0.62;0.00;0.00;0.62;3.73;2.50;;;29.00;26.20;;;;;;2218505;62;20642;-66
2022/08/10 11:11:16;0.00;0.00;0.62;0.00;0.00;0.62;6.30;2.53;;;29.10;25.70;;;;;;2218359;62;20377;-64
2022/08/10 11:14:12;0.00;0.00;0.62;0.00;0.00;0.62;2.80;2.17;;;29.10;25.70;;;;;;2218523;62;20363;-63